Meeker, CO

2:58 AM MDT on October 25, 2014 (GMT -0600)
Meeker | Change Station
CLOSE
Current Station
Airport
Location: Meeker,
Elevation: 6421 ft
Nearby Weather Stations

Elev 6421 ft 40.05 °N, 107.89 °W | Updated 5 minutes ago

Clear
Clear
39 °F
Feels Like 37 °F
N
4
Wind Variable Wind from Variable

Today
High -- | Low -- °F
--% Chance of Precip.
Yesterday
High -- | Low -- °F
Precip. -- in
7:33 AM 6:17 PM
New Moon, 2% visible
Pressure 30.15 in
Visibility 10.0 miles
Clouds Clear
Windchill 37 °F
Dew Point 27 °F
Humidity 62%
Rainfall 0.00 in
Snow Depth Not available.
UV 0 out of 12
Pollen 1.80 out of 12
Air Quality Not available.
Flu Activity Sporadic
METAR KEEO 250853Z AUTO VRB03KT 10SM CLR 04/M03 A3033 RMK AO2 SLP209 T00391028 55001

More Conditions Fewer Conditions

Pressure 30.15 in
Visibility 10.0 miles
Clouds Clear
Windchill 37 °F
Dew Point 27 °F
Humidity 62%
Rainfall 0.00 in
Snow Depth Not available.
UV 0 out of 12
Pollen 1.80 out of 12
Air Quality Not available.
Flu Activity Sporadic
METAR KEEO 250853Z AUTO VRB03KT 10SM CLR 04/M03 A3033 RMK AO2 SLP209 T00391028 55001

More Conditions Fewer Conditions

10-Day Weather Forecast

Almanac

Astronomy

Oct. 25, 2014 Rise Set
Actual Time 7:33 AM MDT 6:17 PM MDT
Civil Twilight 7:05 AM MDT 6:45 PM MDT
Nautical Twilight 6:33 AM MDT 7:17 PM MDT
Astronomical Twilight 6:02 AM MDT 7:48 PM MDT
Moon 9:14 AM MDT 7:43 PM MDT
Length of Visible Light 11h 40m
Length of Day
10h 44m
Tomorrow will be 2m 26s shorter.
New Moon, 2% of the Moon is Illuminated
Today
New Moon
Oct 30
First Quarter
Nov 6
Full
Nov 14
Last Quarter
Nov 22
New

Today's Extremes

State Highs State Lows

Community

WunderPhotos

Upload Photos

1,764,791 photos uploaded!

Nearby

Snow Depth

Station Depth Elevation
Burro Mountain 0 in 9400 ft
Bison Lake 0 in 10880 ft
Trapper Lake 0 in 9700 ft
Crosho 0 in 9100 ft
Bear RIver 0 in 9080 ft

Earthquake Activity

City Distance Mag. Time & Date
No recent earthquake activity has been reported nearby.
Minimum magnitude displayed is 2.5.

Coastal Water Temperatures

Place Temperature
No Stations Reporting

Nearby Weather Stations